Fort Harrison, Montana
Current Conditions -  °F | °C
As of 10:53 AM on Friday 24 Oct 2014 (Local Time) from KHLN Reporting Station
Few Clouds Few Clouds  
Wind Chill: 52°   Ceiling: Unl
Heat Index: 52°   Visibility: 10mi
Dew Point: 37°   Wind: 10mph
Humidity: 57%   Direction: 280°W
Pressure: 30.11"   Gusts: NA
Location:  46.6°N, 112.09°W
Report Text: KHLN 241653Z 28009KT 10SM FEW120 11/03 A3011 RMK AO2 SLP209 T01110028
Loading
Personal Weather Stations






























Interactive Weather Map
Tropical Storm Tracking
New forecast layout! Learn more

10-Day Weather Forecast

Advertisements
Track Severe Weather on mobile